createdAt,value
2022-11-06T00:01:45.567Z,22.48
2022-11-06T00:03:46.878Z,22.48
2022-11-06T00:06:06.933Z,22.47
2022-11-06T00:08:08.212Z,22.44
2022-11-06T00:10:09.520Z,22.49
2022-11-06T00:12:10.785Z,22.49
2022-11-06T00:14:12.072Z,22.46
2022-11-06T00:16:13.578Z,22.47
2022-11-06T00:18:15.216Z,22.09
2022-11-06T00:20:16.921Z,22.00
2022-11-06T00:22:18.265Z,22.08
2022-11-06T00:24:19.533Z,22.19
2022-11-06T00:26:20.820Z,22.28
2022-11-06T00:28:22.108Z,21.53
2022-11-06T00:30:23.810Z,22.41
2022-11-06T00:32:25.139Z,22.55
2022-11-06T00:34:26.479Z,22.63
2022-11-06T00:36:27.832Z,22.64
2022-11-06T00:38:29.108Z,22.62
2022-11-06T00:40:30.447Z,22.63
2022-11-06T00:42:31.903Z,22.65
2022-11-06T00:44:33.184Z,22.66
2022-11-06T00:46:34.511Z,22.67
2022-11-06T00:48:35.810Z,22.69
2022-11-06T00:50:37.102Z,22.72
2022-11-06T00:52:38.421Z,22.51
2022-11-06T00:54:39.850Z,22.26
2022-11-06T00:56:41.125Z,22.36
2022-11-06T00:58:42.468Z,22.59
2022-11-06T01:00:43.731Z,22.73
2022-11-06T01:02:45.575Z,22.77
2022-11-06T01:04:47.248Z,22.81
2022-11-06T01:06:48.559Z,22.85
2022-11-06T01:08:49.895Z,22.84
2022-11-06T01:10:51.174Z,22.80
2022-11-06T01:12:52.481Z,22.84
2022-11-06T01:14:53.846Z,22.83
2022-11-06T01:16:55.172Z,22.82
2022-11-06T01:18:56.446Z,22.82
2022-11-06T01:20:57.760Z,22.82
2022-11-06T01:22:59.028Z,22.82
2022-11-06T01:25:00.828Z,22.79
2022-11-06T01:29:23.505Z,22.69
2022-11-06T01:31:24.768Z,22.27
2022-11-06T01:33:26.028Z,21.12
2022-11-06T01:35:27.340Z,20.80
2022-11-06T01:37:28.618Z,21.12
2022-11-06T01:39:29.897Z,21.31
2022-11-06T01:41:31.230Z,21.39
2022-11-06T01:43:32.485Z,21.41
2022-11-06T01:45:33.779Z,21.40
2022-11-06T01:47:35.092Z,21.39
2022-11-06T01:49:36.404Z,21.35
2022-11-06T01:51:37.677Z,21.32
2022-11-06T01:53:38.987Z,21.30
2022-11-06T01:55:40.312Z,21.27
2022-11-06T01:57:41.580Z,21.22
2022-11-06T01:59:42.916Z,21.21
2022-11-06T02:01:44.302Z,21.21
2022-11-06T02:03:45.873Z,21.23
2022-11-06T02:05:47.148Z,21.26
2022-11-06T02:07:48.471Z,21.32
2022-11-06T02:09:49.765Z,21.39
2022-11-06T02:11:51.038Z,21.43
2022-11-06T02:13:52.303Z,21.47
2022-11-06T02:15:53.623Z,21.49
2022-11-06T02:17:55.004Z,21.53
2022-11-06T02:19:56.313Z,21.55
2022-11-06T02:21:57.610Z,21.58
2022-11-06T02:23:58.936Z,21.58
2022-11-06T02:26:00.254Z,21.58
2022-11-06T02:28:03.364Z,21.60
2022-11-06T02:30:04.652Z,21.58
2022-11-06T02:32:06.978Z,21.55
2022-11-06T02:34:08.324Z,21.54
2022-11-06T02:36:09.803Z,21.49
2022-11-06T02:38:11.311Z,21.47
2022-11-06T02:40:12.892Z,21.45
2022-11-06T02:42:14.169Z,21.42
2022-11-06T02:44:15.477Z,21.38
2022-11-06T02:46:16.804Z,21.34
2022-11-06T02:48:18.115Z,21.31
2022-11-06T02:50:19.389Z,21.26
2022-11-06T02:52:20.939Z,21.21
2022-11-06T02:54:22.210Z,21.18
2022-11-06T02:56:23.489Z,21.17
2022-11-06T02:58:24.790Z,21.13
2022-11-06T03:00:26.115Z,21.11
2022-11-06T03:02:27.478Z,21.09
2022-11-06T03:04:28.854Z,21.05
2022-11-06T03:06:30.242Z,21.02
2022-11-06T03:08:31.838Z,20.99
2022-11-06T03:10:33.133Z,20.95
2022-11-06T03:12:34.473Z,20.93
2022-11-06T03:14:35.805Z,20.89
2022-11-06T03:16:37.150Z,20.87
2022-11-06T03:18:38.421Z,20.94
2022-11-06T03:20:39.692Z,20.92
2022-11-06T03:22:40.948Z,20.90
2022-11-06T03:24:42.226Z,20.88
2022-11-06T03:26:43.600Z,20.89
2022-11-06T03:28:44.913Z,20.93
2022-11-06T03:30:46.206Z,21.00
2022-11-06T03:32:47.508Z,21.06
2022-11-06T03:34:48.792Z,21.14
2022-11-06T03:36:50.065Z,21.20
2022-11-06T03:38:51.350Z,21.28
2022-11-06T03:40:52.653Z,21.31
2022-11-06T03:42:54.234Z,21.34
2022-11-06T03:44:55.524Z,21.38
2022-11-06T03:46:56.861Z,21.42
2022-11-06T03:48:58.215Z,21.47
2022-11-06T03:50:59.484Z,21.48
2022-11-06T03:53:00.804Z,21.48
2022-11-06T03:55:02.121Z,21.46
2022-11-06T03:57:03.401Z,21.44
2022-11-06T03:59:04.796Z,21.44
2022-11-06T04:01:06.798Z,21.45
2022-11-06T04:03:08.174Z,21.48
2022-11-06T04:05:09.602Z,21.46
2022-11-06T04:07:10.882Z,21.45
2022-11-06T04:09:30.941Z,21.42
2022-11-06T04:11:50.652Z,21.38
2022-11-06T04:13:57.743Z,21.34
2022-11-06T04:15:59.303Z,21.29
2022-11-06T04:18:00.612Z,21.23
2022-11-06T04:20:01.935Z,21.20
2022-11-06T04:22:03.225Z,21.15
2022-11-06T04:24:22.969Z,21.10
2022-11-06T04:26:36.208Z,21.06
2022-11-06T04:28:37.617Z,21.05
2022-11-06T04:30:38.934Z,21.01
2022-11-06T04:32:40.271Z,20.95
2022-11-06T04:34:41.545Z,20.89
2022-11-06T04:36:42.854Z,20.85
2022-11-06T04:38:44.135Z,20.83
2022-11-06T04:40:45.401Z,20.80
2022-11-06T04:42:46.794Z,20.78
2022-11-06T04:44:48.826Z,20.76
2022-11-06T04:46:50.105Z,20.74
2022-11-06T04:48:51.616Z,20.72
2022-11-06T04:50:52.971Z,20.73
2022-11-06T04:52:54.264Z,20.74
2022-11-06T04:54:55.545Z,20.77
2022-11-06T04:56:56.814Z,20.79
2022-11-06T04:58:58.230Z,20.85
2022-11-06T05:00:59.638Z,20.93
2022-11-06T05:03:00.960Z,20.99
2022-11-06T05:05:02.269Z,21.06
2022-11-06T05:07:03.551Z,21.10
2022-11-06T05:09:04.863Z,21.16
2022-11-06T05:11:06.526Z,21.24
2022-11-06T05:13:07.802Z,21.30
2022-11-06T05:15:09.308Z,21.36
2022-11-06T05:17:10.624Z,21.36
2022-11-06T05:19:11.935Z,21.39
2022-11-06T05:21:31.945Z,21.40
2022-11-06T05:23:33.469Z,21.44
2022-11-06T05:25:34.820Z,21.47
2022-11-06T05:27:36.105Z,21.45
2022-11-06T05:29:37.447Z,21.45
2022-11-06T05:31:38.715Z,21.44
2022-11-06T05:33:39.974Z,21.42
2022-11-06T05:35:41.637Z,21.39
2022-11-06T05:37:42.913Z,21.37
2022-11-06T05:39:44.235Z,21.33
2022-11-06T05:41:45.514Z,21.27
2022-11-06T05:43:46.932Z,21.30
2022-11-06T05:45:48.277Z,21.25
2022-11-06T05:47:49.561Z,21.21
2022-11-06T05:49:50.833Z,21.18
2022-11-06T05:51:52.151Z,21.14
2022-11-06T05:53:53.419Z,21.11
2022-11-06T05:55:54.729Z,21.08
2022-11-06T05:57:56.040Z,21.05
2022-11-06T05:59:57.327Z,21.03
2022-11-06T06:01:59.610Z,20.98
2022-11-06T06:04:01.175Z,20.94
2022-11-06T06:06:02.485Z,20.90
2022-11-06T06:08:03.832Z,20.86
2022-11-06T06:10:05.101Z,20.83
2022-11-06T06:12:06.358Z,20.81
2022-11-06T06:14:07.650Z,20.79
2022-11-06T06:16:08.980Z,20.78
2022-11-06T06:18:10.638Z,20.75
2022-11-06T06:20:12.081Z,20.73
2022-11-06T06:22:13.361Z,20.72
2022-11-06T06:24:14.668Z,20.73
2022-11-06T06:26:15.952Z,20.80
2022-11-06T06:28:17.280Z,20.87
2022-11-06T06:30:18.820Z,20.94
2022-11-06T06:32:20.720Z,21.01
2022-11-06T06:34:22.220Z,21.04
2022-11-06T06:36:23.513Z,21.08
2022-11-06T06:38:26.017Z,21.12
2022-11-06T06:40:27.501Z,21.15
2022-11-06T06:42:31.280Z,21.22
2022-11-06T06:44:32.868Z,21.28
2022-11-06T06:46:34.216Z,21.31
2022-11-06T06:48:35.553Z,21.31
2022-11-06T06:50:36.993Z,21.29
2022-11-06T06:52:38.306Z,21.34
2022-11-06T06:54:40.068Z,21.37
2022-11-06T06:56:41.543Z,21.36
2022-11-06T06:58:42.913Z,21.35
2022-11-06T07:00:44.236Z,21.32
2022-11-06T07:02:45.572Z,21.30
2022-11-06T07:04:46.914Z,21.29
2022-11-06T07:06:48.209Z,21.28
2022-11-06T07:08:49.481Z,21.24
2022-11-06T07:10:50.777Z,21.24
2022-11-06T07:12:52.050Z,21.20
2022-11-06T07:14:53.365Z,21.18
2022-11-06T07:16:54.633Z,21.13
2022-11-06T07:18:58.832Z,21.10
2022-11-06T07:21:00.171Z,21.04
2022-11-06T07:23:01.445Z,21.04
2022-11-06T07:25:02.770Z,21.05
2022-11-06T07:27:04.744Z,21.04
2022-11-06T07:29:06.069Z,21.01
2022-11-06T07:31:07.337Z,20.98
2022-11-06T07:33:08.779Z,20.92
2022-11-06T07:35:10.044Z,20.88
2022-11-06T07:37:11.356Z,20.84
2022-11-06T07:39:12.677Z,20.81
2022-11-06T07:41:13.949Z,20.78
2022-11-06T07:43:15.430Z,20.74
2022-11-06T07:45:16.788Z,20.70
2022-11-06T07:47:18.052Z,20.70
2022-11-06T07:49:19.367Z,20.71
2022-11-06T07:51:20.636Z,20.70
2022-11-06T07:53:21.975Z,20.73
2022-11-06T07:55:23.249Z,20.77
2022-11-06T07:57:24.511Z,20.84
2022-11-06T07:59:25.820Z,20.96
2022-11-06T08:01:27.160Z,21.05
2022-11-06T08:03:30.280Z,21.20
2022-11-06T08:05:32.802Z,21.24
2022-11-06T08:07:34.065Z,19.91
2022-11-06T08:09:35.334Z,18.71
2022-11-06T08:11:36.808Z,18.80
2022-11-06T08:13:38.164Z,19.68
2022-11-06T08:15:39.801Z,19.64
2022-11-06T08:17:41.087Z,20.84
2022-11-06T08:19:42.440Z,21.12
2022-11-06T08:21:43.711Z,21.43
2022-11-06T08:23:45.010Z,21.34
2022-11-06T08:25:46.358Z,21.16
2022-11-06T08:27:47.637Z,21.05
2022-11-06T08:29:48.908Z,20.98
2022-11-06T08:31:53.237Z,20.95
2022-11-06T08:33:54.552Z,20.95
2022-11-06T08:35:55.834Z,20.96
2022-11-06T08:37:57.145Z,20.96
2022-11-06T08:39:58.489Z,20.95
2022-11-06T08:41:59.808Z,20.90
2022-11-06T08:44:03.986Z,20.86
2022-11-06T08:46:05.320Z,20.85
2022-11-06T08:48:07.293Z,20.82
2022-11-06T08:50:08.638Z,20.83
2022-11-06T08:52:10.821Z,20.84
2022-11-06T08:54:12.297Z,20.92
2022-11-06T08:56:14.296Z,20.94
2022-11-06T08:58:15.676Z,21.01
2022-11-06T09:00:17.011Z,21.01
2022-11-06T09:02:18.353Z,21.07
2022-11-06T09:04:19.667Z,21.06
2022-11-06T09:06:20.938Z,21.04
2022-11-06T09:08:25.204Z,21.03
2022-11-06T09:10:26.477Z,21.05
2022-11-06T09:12:27.829Z,21.07
2022-11-06T09:14:29.104Z,21.07
2022-11-06T09:16:33.081Z,21.03
2022-11-06T09:18:34.409Z,21.00
2022-11-06T09:20:35.688Z,20.97
2022-11-06T09:22:36.970Z,20.98
2022-11-06T09:25:02.128Z,20.99
2022-11-06T09:26:59.806Z,20.96
2022-11-06T09:29:01.104Z,21.02
2022-11-06T09:31:02.433Z,21.06
2022-11-06T09:33:03.720Z,21.07
2022-11-06T09:35:05.034Z,21.12
2022-11-06T09:37:06.312Z,21.11
2022-11-06T09:39:07.628Z,21.15
2022-11-06T09:41:08.889Z,21.21
2022-11-06T09:43:10.326Z,21.27
2022-11-06T09:45:11.737Z,21.19
2022-11-06T09:47:13.225Z,21.27
2022-11-06T09:49:14.501Z,21.28
2022-11-06T09:51:15.773Z,21.22
2022-11-06T09:53:17.508Z,21.38
2022-11-06T09:55:19.751Z,22.18
2022-11-06T09:57:21.180Z,22.20
2022-11-06T09:59:22.459Z,22.57
2022-11-06T10:01:27.283Z,22.97
2022-11-06T10:03:29.021Z,22.84
2022-11-06T10:05:30.360Z,22.88
2022-11-06T10:07:31.620Z,23.27
2022-11-06T10:09:35.638Z,23.07
2022-11-06T10:11:36.963Z,22.87
2022-11-06T10:13:38.221Z,23.11
2022-11-06T10:15:39.805Z,23.09
2022-11-06T10:17:41.082Z,23.43
2022-11-06T10:19:42.570Z,23.27
2022-11-06T10:21:43.933Z,23.54
2022-11-06T10:23:45.257Z,23.60
2022-11-06T10:25:46.560Z,23.59
2022-11-06T10:27:48.080Z,23.51
2022-11-06T10:29:49.397Z,23.28
2022-11-06T10:31:50.706Z,23.07
2022-11-06T10:33:52.033Z,23.00
2022-11-06T10:35:53.362Z,23.45
2022-11-06T10:37:54.862Z,23.64
2022-11-06T10:39:56.184Z,23.31
2022-11-06T10:41:57.476Z,23.27
2022-11-06T10:43:58.783Z,23.13
2022-11-06T10:46:00.105Z,23.08
2022-11-06T10:48:03.464Z,23.23
2022-11-06T10:50:04.746Z,23.10
2022-11-06T10:52:08.830Z,23.05
2022-11-06T10:54:10.477Z,23.20
2022-11-06T10:56:13.743Z,23.18
2022-11-06T10:58:17.185Z,23.30
2022-11-06T11:00:21.695Z,22.69
2022-11-06T11:02:23.075Z,23.54
2022-11-06T11:04:24.393Z,23.57
2022-11-06T11:06:25.693Z,23.10
2022-11-06T11:08:26.995Z,22.64
2022-11-06T11:10:28.519Z,22.45
2022-11-06T11:12:29.792Z,22.37
2022-11-06T11:14:31.093Z,22.29
2022-11-06T11:16:32.412Z,22.25
2022-11-06T11:18:34.461Z,22.24
2022-11-06T11:20:35.838Z,22.24
2022-11-06T11:22:37.220Z,22.20
2022-11-06T11:24:38.527Z,22.18
2022-11-06T11:26:39.873Z,22.16
2022-11-06T11:28:41.179Z,22.10
2022-11-06T11:30:42.480Z,22.06
2022-11-06T11:32:44.021Z,22.01
2022-11-06T11:34:49.392Z,21.96
2022-11-06T11:36:52.837Z,21.90
2022-11-06T11:38:54.213Z,21.86
2022-11-06T11:40:55.592Z,21.82
2022-11-06T11:42:56.848Z,21.80
2022-11-06T11:44:58.167Z,21.76
2022-11-06T11:46:59.424Z,21.72
2022-11-06T11:49:02.256Z,21.69
2022-11-06T11:51:03.528Z,21.65
2022-11-06T11:53:09.920Z,21.63
2022-11-06T11:55:11.903Z,21.59
2022-11-06T11:57:13.172Z,21.54
2022-11-06T11:59:14.622Z,21.51
2022-11-06T12:01:15.903Z,21.48
2022-11-06T12:03:17.223Z,21.44
2022-11-06T12:05:18.510Z,21.42
2022-11-06T12:07:19.789Z,21.38
2022-11-06T12:09:21.065Z,21.35
2022-11-06T12:11:22.371Z,21.30
2022-11-06T12:13:23.849Z,21.27
2022-11-06T12:15:25.168Z,21.22
2022-11-06T12:17:26.615Z,21.17
2022-11-06T12:19:27.888Z,21.14
2022-11-06T12:21:29.182Z,21.11
2022-11-06T12:23:33.509Z,21.09
2022-11-06T12:25:34.841Z,21.72
2022-11-06T12:27:36.132Z,21.93
2022-11-06T12:29:43.442Z,21.94
2022-11-06T12:31:44.784Z,21.99
2022-11-06T12:34:05.831Z,22.06
2022-11-06T12:36:07.410Z,22.13
2022-11-06T12:38:11.708Z,22.18
2022-11-06T12:40:13.805Z,22.20
2022-11-06T12:42:15.125Z,22.24
2022-11-06T12:44:17.095Z,22.30
2022-11-06T12:46:18.447Z,22.33
2022-11-06T12:48:19.746Z,22.37
2022-11-06T12:50:21.072Z,22.39
2022-11-06T12:52:22.569Z,22.32
2022-11-06T12:54:24.661Z,22.35
2022-11-06T12:56:25.929Z,22.42
2022-11-06T12:58:27.215Z,22.47
2022-11-06T13:00:31.410Z,22.29
2022-11-06T13:02:33.143Z,21.94
2022-11-06T13:04:34.490Z,21.73
2022-11-06T13:06:36.033Z,21.60
2022-11-06T13:08:37.289Z,21.51
2022-11-06T13:10:38.588Z,21.46
2022-11-06T13:12:39.866Z,21.41
2022-11-06T13:14:41.141Z,21.34
2022-11-06T13:16:42.468Z,21.31
2022-11-06T13:18:43.722Z,21.89
2022-11-06T13:20:44.980Z,22.46
2022-11-06T13:22:49.417Z,22.40
2022-11-06T13:24:50.690Z,22.42
2022-11-06T13:26:52.037Z,22.43
2022-11-06T13:28:57.055Z,22.41
2022-11-06T13:30:59.119Z,22.46
2022-11-06T13:33:01.287Z,22.49
2022-11-06T13:35:02.568Z,22.43
2022-11-06T13:37:03.857Z,22.39
2022-11-06T13:39:05.316Z,22.46
2022-11-06T13:41:06.638Z,22.47
2022-11-06T13:43:07.965Z,22.48
2022-11-06T13:45:09.261Z,22.55
2022-11-06T13:47:10.569Z,22.53
2022-11-06T13:49:11.846Z,22.11
2022-11-06T13:51:13.180Z,21.83
2022-11-06T13:53:14.440Z,22.14
2022-11-06T13:55:15.713Z,21.74
2022-11-06T13:57:17.006Z,22.58
2022-11-06T13:59:21.149Z,22.56
2022-11-06T14:01:30.947Z,22.22
2022-11-06T14:03:32.317Z,21.84
2022-11-06T14:05:33.584Z,21.65
2022-11-06T14:07:34.862Z,21.54
2022-11-06T14:09:39.137Z,21.46
2022-11-06T14:11:40.392Z,21.38
2022-11-06T14:13:41.848Z,21.33
2022-11-06T14:15:43.705Z,21.29
2022-11-06T14:17:44.989Z,21.23
2022-11-06T14:19:50.683Z,21.21
2022-11-06T14:21:58.324Z,21.16
2022-11-06T14:23:59.612Z,21.10
2022-11-06T14:26:00.928Z,21.07
2022-11-06T14:28:02.193Z,21.01
2022-11-06T14:30:05.379Z,20.97
2022-11-06T14:32:08.594Z,20.93
2022-11-06T14:34:10.309Z,20.88
2022-11-06T14:36:11.834Z,20.84
2022-11-06T14:38:13.543Z,20.80
2022-11-06T14:40:14.990Z,20.75
2022-11-06T14:42:16.323Z,20.73
2022-11-06T14:44:17.597Z,20.68
2022-11-06T14:46:22.327Z,20.65
2022-11-06T14:48:24.287Z,20.61
2022-11-06T14:50:25.958Z,20.60
2022-11-06T14:52:27.228Z,20.57
2022-11-06T14:54:28.552Z,20.55
2022-11-06T14:56:29.841Z,20.55
2022-11-06T14:58:31.146Z,20.55
2022-11-06T15:00:35.297Z,20.56
2022-11-06T15:02:37.384Z,20.57
2022-11-06T15:04:38.749Z,20.58
2022-11-06T15:06:40.153Z,20.59
2022-11-06T15:08:41.427Z,20.57
2022-11-06T15:10:42.737Z,20.56
2022-11-06T15:12:44.109Z,20.52
2022-11-06T15:14:45.401Z,20.50
2022-11-06T15:16:47.296Z,20.47
2022-11-06T15:18:51.626Z,20.48
2022-11-06T15:20:52.892Z,20.46
2022-11-06T15:22:54.153Z,20.48
2022-11-06T15:24:55.437Z,20.48
2022-11-06T15:26:56.727Z,20.50
2022-11-06T15:28:58.001Z,20.52
2022-11-06T15:30:59.325Z,20.56
2022-11-06T15:33:00.602Z,20.56
2022-11-06T15:35:01.895Z,20.74
2022-11-06T15:37:08.993Z,20.71
2022-11-06T15:39:10.274Z,20.68
2022-11-06T15:41:11.541Z,20.68
2022-11-06T15:43:13.119Z,20.67
2022-11-06T15:45:15.707Z,20.65
2022-11-06T15:47:16.993Z,20.67
2022-11-06T15:49:21.537Z,20.66
2022-11-06T15:51:23.086Z,20.65
2022-11-06T15:53:24.368Z,20.64
2022-11-06T15:55:25.734Z,20.80
2022-11-06T15:57:27.007Z,21.32
2022-11-06T15:59:28.282Z,21.22
2022-11-06T16:01:30.363Z,21.05
2022-11-06T16:03:32.169Z,21.06
2022-11-06T16:05:33.606Z,21.11
2022-11-06T16:07:35.234Z,21.19
2022-11-06T16:09:36.562Z,21.21
2022-11-06T16:11:37.845Z,21.27
2022-11-06T16:13:39.165Z,21.34
2022-11-06T16:15:40.800Z,21.40
2022-11-06T16:17:46.176Z,21.41
2022-11-06T16:19:50.644Z,21.43
2022-11-06T16:21:56.294Z,21.42
2022-11-06T16:23:57.590Z,21.37
2022-11-06T16:25:58.905Z,21.36
2022-11-06T16:28:00.241Z,21.33
2022-11-06T16:30:03.177Z,21.28
2022-11-06T16:32:04.465Z,21.26
2022-11-06T16:34:05.795Z,21.23
2022-11-06T16:36:07.072Z,21.22
2022-11-06T16:38:38.622Z,21.18
2022-11-06T16:40:32.415Z,21.16
2022-11-06T16:42:38.726Z,21.16
2022-11-06T16:44:40.037Z,21.12
2022-11-06T16:46:41.317Z,21.11
2022-11-06T16:48:43.136Z,21.10
2022-11-06T16:50:44.537Z,21.09
2022-11-06T16:52:54.953Z,21.07
2022-11-06T16:54:56.321Z,21.05
2022-11-06T16:56:57.589Z,21.04
2022-11-06T16:58:59.372Z,21.04
2022-11-06T17:01:00.758Z,20.99
2022-11-06T17:03:02.328Z,20.98
2022-11-06T17:05:04.360Z,20.99
2022-11-06T17:07:05.688Z,20.96
2022-11-06T17:09:09.682Z,20.95
2022-11-06T17:11:11.313Z,20.90
2022-11-06T17:13:13.520Z,20.84
2022-11-06T17:15:19.336Z,20.81
2022-11-06T17:17:20.591Z,20.77
2022-11-06T17:19:21.877Z,20.74
2022-11-06T17:21:23.198Z,20.75
2022-11-06T17:23:24.745Z,20.80
2022-11-06T17:25:26.085Z,20.90
2022-11-06T17:27:27.428Z,21.05
2022-11-06T17:29:31.644Z,21.15
2022-11-06T17:31:32.937Z,21.25
2022-11-06T17:33:34.646Z,21.34
2022-11-06T17:35:36.164Z,21.41
2022-11-06T17:37:37.520Z,21.46
2022-11-06T17:39:38.843Z,21.51
2022-11-06T17:41:40.274Z,21.55
2022-11-06T17:43:41.578Z,21.60
2022-11-06T17:45:42.900Z,21.63
2022-11-06T17:47:44.190Z,21.65
2022-11-06T17:49:59.081Z,21.67
2022-11-06T17:52:00.790Z,21.68
2022-11-06T17:54:02.257Z,21.65
2022-11-06T17:56:07.045Z,21.68
2022-11-06T17:58:08.337Z,21.77
2022-11-06T18:00:11.435Z,22.22
2022-11-06T18:02:12.940Z,22.45
2022-11-06T18:04:14.333Z,22.57
2022-11-06T18:06:19.419Z,22.63
2022-11-06T18:08:20.695Z,23.04
2022-11-06T18:10:30.685Z,23.11
2022-11-06T18:12:32.233Z,22.95
2022-11-06T18:14:33.500Z,23.16
2022-11-06T18:16:43.586Z,23.34
2022-11-06T18:18:45.320Z,23.38
2022-11-06T18:20:46.673Z,23.67
2022-11-06T18:22:51.109Z,23.23
2022-11-06T18:24:52.384Z,23.50
2022-11-06T18:26:54.426Z,23.13
2022-11-06T18:28:55.739Z,22.99
2022-11-06T18:30:57.443Z,22.93
2022-11-06T18:33:10.813Z,22.88
2022-11-06T18:35:15.143Z,22.88
2022-11-06T18:37:17.468Z,22.90
2022-11-06T18:39:27.678Z,22.90
2022-11-06T18:41:32.125Z,22.88
2022-11-06T18:43:33.444Z,22.83
2022-11-06T18:45:37.547Z,22.62
2022-11-06T18:47:39.012Z,22.15
2022-11-06T18:49:49.280Z,22.24
2022-11-06T18:51:56.710Z,22.71
2022-11-06T18:54:00.751Z,22.59
2022-11-06T18:56:11.388Z,22.57
2022-11-06T18:58:30.731Z,22.49
2022-11-06T19:00:47.489Z,22.46
2022-11-06T19:02:49.644Z,22.46
2022-11-06T19:04:51.883Z,22.81
2022-11-06T19:07:02.096Z,22.60
2022-11-06T19:09:06.146Z,22.52
2022-11-06T19:11:08.244Z,22.72
2022-11-06T19:13:25.457Z,22.81
2022-11-06T19:16:03.804Z,22.98
2022-11-06T19:18:08.521Z,22.45
2022-11-06T19:20:20.188Z,22.66
2022-11-06T19:22:21.457Z,22.89
2022-11-06T19:24:29.026Z,23.04
2022-11-06T19:26:39.479Z,23.16
2022-11-06T19:28:44.589Z,23.24
2022-11-06T19:30:45.855Z,23.38
2022-11-06T19:32:56.066Z,23.46
2022-11-06T19:35:03.337Z,23.47
2022-11-06T19:37:05.503Z,23.40
2022-11-06T19:39:07.280Z,23.40
2022-11-06T19:41:11.341Z,23.40
2022-11-06T19:43:13.828Z,23.44
2022-11-06T19:45:18.365Z,23.48
2022-11-06T19:47:19.641Z,23.44
2022-11-06T19:49:21.005Z,23.11
2022-11-06T19:51:22.370Z,22.78
2022-11-06T19:53:26.696Z,22.83
2022-11-06T19:55:28.119Z,22.83
2022-11-06T19:57:30.523Z,23.01
2022-11-06T19:59:31.946Z,22.98
2022-11-06T20:01:34.465Z,22.83
2022-11-06T20:03:37.893Z,22.81
2022-11-06T20:05:39.442Z,22.80
2022-11-06T20:07:43.574Z,22.80
2022-11-06T20:09:44.854Z,22.76
2022-11-06T20:11:46.217Z,22.78
2022-11-06T20:13:53.717Z,22.73
2022-11-06T20:15:54.975Z,22.79
2022-11-06T20:17:56.269Z,22.79
2022-11-06T20:20:00.517Z,22.82
2022-11-06T20:22:02.442Z,22.83
2022-11-06T20:24:03.741Z,22.85
2022-11-06T20:26:05.040Z,22.51
2022-11-06T20:28:06.634Z,22.26
2022-11-06T20:30:07.916Z,22.19
2022-11-06T20:32:09.800Z,22.29
2022-11-06T20:34:11.180Z,22.36
2022-11-06T20:36:12.766Z,22.44
2022-11-06T20:38:17.156Z,22.50
2022-11-06T20:40:18.424Z,22.58
2022-11-06T20:42:19.782Z,22.59
2022-11-06T20:44:21.093Z,22.33
2022-11-06T20:46:22.683Z,22.19
2022-11-06T20:48:26.889Z,22.11
2022-11-06T20:50:28.160Z,22.08
2022-11-06T20:52:29.589Z,22.04
2022-11-06T20:54:30.881Z,22.01
2022-11-06T20:56:32.157Z,22.28
2022-11-06T20:58:33.597Z,22.44
2022-11-06T21:00:34.873Z,22.61
2022-11-06T21:02:36.287Z,22.70
2022-11-06T21:04:37.673Z,22.80
2022-11-06T21:06:39.289Z,22.89
2022-11-06T21:08:40.616Z,22.98
2022-11-06T21:10:41.938Z,23.24
2022-11-06T21:12:44.036Z,23.24
2022-11-06T21:14:45.619Z,23.15
2022-11-06T21:16:47.116Z,23.11
2022-11-06T21:18:48.427Z,23.07
2022-11-06T21:20:49.706Z,23.37
2022-11-06T21:22:50.980Z,23.07
2022-11-06T21:24:52.285Z,22.93
2022-11-06T21:26:55.818Z,22.65
2022-11-06T21:28:57.089Z,22.37
2022-11-06T21:30:58.412Z,22.96
2022-11-06T21:32:59.749Z,22.78
2022-11-06T21:35:01.042Z,22.64
2022-11-06T21:37:03.082Z,20.43
2022-11-06T21:39:04.539Z,19.95
2022-11-06T21:41:06.160Z,21.48
2022-11-06T21:43:07.953Z,21.77
2022-11-06T21:45:14.573Z,21.96
2022-11-06T21:47:16.160Z,22.02
2022-11-06T21:49:17.698Z,22.09
2022-11-06T21:51:19.075Z,22.12
2022-11-06T21:53:39.281Z,22.19
2022-11-06T21:55:58.866Z,22.20
2022-11-06T21:58:00.821Z,22.24
2022-11-06T22:00:02.146Z,22.49
2022-11-06T22:02:03.505Z,22.43
2022-11-06T22:04:04.886Z,22.27
2022-11-06T22:06:06.206Z,22.24
2022-11-06T22:08:07.500Z,22.29
2022-11-06T22:10:08.778Z,22.50
2022-11-06T22:12:10.045Z,22.46
2022-11-06T22:14:11.328Z,21.28
2022-11-06T22:16:12.732Z,21.93
2022-11-06T22:18:14.454Z,22.16
2022-11-06T22:20:16.283Z,22.24
2022-11-06T22:22:17.553Z,22.30
2022-11-06T22:24:18.884Z,22.33
2022-11-06T22:26:20.171Z,22.36
2022-11-06T22:28:21.446Z,22.59
2022-11-06T22:30:22.700Z,22.56
2022-11-06T22:32:23.974Z,22.52
2022-11-06T22:34:25.317Z,22.52
2022-11-06T22:36:26.658Z,22.50
2022-11-06T22:38:27.965Z,22.50
2022-11-06T22:40:29.261Z,22.48
2022-11-06T22:42:30.531Z,22.45
2022-11-06T22:44:32.856Z,22.34
2022-11-06T22:46:34.604Z,21.52
2022-11-06T22:48:36.046Z,20.95
2022-11-06T22:50:37.322Z,19.78
2022-11-06T22:52:38.650Z,19.25
2022-11-06T22:54:39.941Z,20.40
2022-11-06T22:56:41.266Z,21.11
2022-11-06T22:58:42.592Z,21.75
2022-11-06T23:00:43.907Z,21.81
2022-11-06T23:02:45.230Z,21.82
2022-11-06T23:04:46.581Z,21.92
2022-11-06T23:06:47.911Z,22.02
2022-11-06T23:08:49.187Z,22.06
2022-11-06T23:10:50.544Z,22.11
2022-11-06T23:12:51.826Z,22.16
2022-11-06T23:14:53.394Z,22.25
2022-11-06T23:16:57.779Z,22.28
2022-11-06T23:18:59.058Z,22.34
2022-11-06T23:21:00.324Z,22.47
2022-11-06T23:23:01.638Z,22.46
2022-11-06T23:25:02.940Z,22.46
2022-11-06T23:27:04.241Z,22.50
2022-11-06T23:29:05.577Z,22.55
2022-11-06T23:31:07.015Z,22.56
2022-11-06T23:33:08.337Z,22.57
2022-11-06T23:35:13.292Z,22.61
2022-11-06T23:37:15.500Z,22.67
2022-11-06T23:39:17.009Z,22.63
2022-11-06T23:41:36.970Z,22.64
2022-11-06T23:43:38.226Z,20.34
2022-11-06T23:45:48.546Z,19.54
2022-11-06T23:47:50.248Z,20.03
2022-11-06T23:49:51.564Z,20.65
2022-11-06T23:51:52.901Z,20.95
2022-11-06T23:53:54.198Z,21.13
2022-11-06T23:55:55.597Z,21.18
2022-11-06T23:57:56.982Z,21.17
2022-11-06T23:59:58.322Z,21.17
